Trigg Furnace, Kentucky
Current Conditions -  °F | °C
As of 4:58 AM on Wednesday 22 Oct 2014 (Local Time) from KHOP Reporting Station
Clear Clear  
Wind Chill: 34°   Ceiling: Unl
Heat Index: 40°   Visibility: 9mi
Dew Point: 40°   Wind: 8mph
Humidity: 100%   Direction: 20°NNE
Pressure: 30.2"   Gusts: NA
Location:  36.8031°N, 87.8159°W
Report Text: KHOP 220958Z AUTO 02007KT 9SM CLR 04/04 A3020 RMK AO2 SLP228 T00420042
Loading
Personal Weather Stations






























Interactive Weather Map
Tropical Storm Tracking
New forecast layout! Learn more

10-Day Weather Forecast

Advertisements
Track Severe Weather on mobile